Time;durP1;ratioP1;P1;durP2;ratioP2;P2;SDS_P1;SDS_P2;PMS_P1;PMS_P2;Temp;Humidity;BMP_temperature;BMP_pressure;BME280_temperature;BME280_humidity;BME280_pressure;Samples;Min_cycle;Max_cycle;Signal;HPM_P1;HPM_P2
2022/08/26 00:00:57;;;;;;;7.63;5.95;;;;;;;;;;5055765;28;20284;-79
2022/08/26 00:03:23;;;;;;;6.95;5.53;;;;;;;;;;5072655;28;20200;-79
2022/08/26 00:05:50;;;;;;;6.18;5.57;;;;;;;;;;5072187;28;20533;-80
2022/08/26 00:08:16;;;;;;;6.65;5.65;;;;;;;;;;5071987;28;20205;-79
2022/08/26 00:10:42;;;;;;;6.55;5.32;;;;;;;;;;5072195;28;20631;-79
2022/08/26 00:13:09;;;;;;;6.40;5.80;;;;;;;;;;5055625;28;20679;-79
2022/08/26 00:15:35;;;;;;;6.43;5.80;;;;;;;;;;5056163;28;20252;-79
2022/08/26 00:18:02;;;;;;;6.10;5.50;;;;;;;;;;5072314;28;20672;-80
2022/08/26 00:20:29;;;;;;;5.70;5.18;;;;;;;;;;5072522;28;20222;-79
2022/08/26 00:22:55;;;;;;;6.20;5.60;;;;;;;;;;5072384;28;20193;-79
2022/08/26 00:25:21;;;;;;;6.55;5.82;;;;;;;;;;5071954;28;20177;-79
2022/08/26 00:27:47;;;;;;;6.68;5.95;;;;;;;;;;5072237;28;20199;-79
2022/08/26 00:30:15;;;;;;;7.05;6.00;;;;;;;;;;5072434;28;20226;-79
2022/08/26 00:32:41;;;;;;;6.82;6.22;;;;;;;;;;5072618;28;20477;-79
2022/08/26 00:35:07;;;;;;;6.55;5.85;;;;;;;;;;5072440;28;20205;-79
2022/08/26 00:37:33;;;;;;;7.97;5.90;;;;;;;;;;5055723;28;20180;-79
2022/08/26 00:39:59;;;;;;;7.93;6.18;;;;;;;;;;5057528;28;20248;-79
2022/08/26 00:42:26;;;;;;;7.60;6.30;;;;;;;;;;5075365;28;20201;-79
2022/08/26 00:44:52;;;;;;;7.50;5.95;;;;;;;;;;5076241;28;20199;-79
2022/08/26 00:47:31;;;;;;;7.20;5.90;;;;;;;;;;5076543;28;20169;-80
2022/08/26 00:49:58;;;;;;;6.70;6.00;;;;;;;;;;5075973;28;20161;-80
2022/08/26 00:52:25;;;;;;;7.00;6.30;;;;;;;;;;5075746;28;20196;-80
2022/08/26 00:55:14;;;;;;;7.35;6.30;;;;;;;;;;5075809;28;20177;-79
2022/08/26 00:57:41;;;;;;;6.63;5.93;;;;;;;;;;5062711;28;20189;-79
2022/08/26 01:00:10;;;;;;;7.57;5.97;;;;;;;;;;5059646;28;20196;-79
2022/08/26 01:02:36;;;;;;;6.57;5.85;;;;;;;;;;5059287;28;20288;-79
2022/08/26 01:05:03;;;;;;;6.93;6.25;;;;;;;;;;5075565;28;20299;-79
2022/08/26 01:07:30;;;;;;;7.30;6.03;;;;;;;;;;5058545;28;20185;-79
2022/08/26 01:09:58;;;;;;;7.43;5.97;;;;;;;;;;5076198;28;20177;-80
2022/08/26 01:12:27;;;;;;;7.90;6.30;;;;;;;;;;5075296;28;20215;-80
2022/08/26 01:14:53;;;;;;;6.78;6.07;;;;;;;;;;5075781;28;20177;-80
2022/08/26 01:17:19;;;;;;;6.50;5.50;;;;;;;;;;5059108;28;20181;-79
2022/08/26 01:19:48;;;;;;;6.65;5.95;;;;;;;;;;5059263;28;20250;-79
2022/08/26 01:22:19;;;;;;;6.90;6.00;;;;;;;;;;5059022;28;20196;-79
2022/08/26 01:24:46;;;;;;;8.80;6.82;;;;;;;;;;5058832;28;20178;-79
2022/08/26 01:27:14;;;;;;;7.63;6.32;;;;;;;;;;5050331;28;20282;-80
2022/08/26 01:29:41;;;;;;;9.02;6.57;;;;;;;;;;5059261;28;20173;-79
2022/08/26 01:32:10;;;;;;;6.95;6.25;;;;;;;;;;5075564;28;20231;-79
2022/08/26 01:34:37;;;;;;;8.05;6.70;;;;;;;;;;5077198;28;20176;-79
2022/08/26 01:37:12;;;;;;;7.10;6.40;;;;;;;;;;5059349;28;20187;-79
2022/08/26 01:39:38;;;;;;;9.43;6.80;;;;;;;;;;5058966;28;20333;-79
2022/08/26 01:42:05;;;;;;;7.60;6.27;;;;;;;;;;5076602;28;20223;-79
2022/08/26 01:44:35;;;;;;;9.83;6.63;;;;;;;;;;5077602;28;20639;-79
2022/08/26 01:47:01;;;;;;;7.20;6.50;;;;;;;;;;5060250;28;20607;-79
2022/08/26 01:49:27;;;;;;;8.13;6.27;;;;;;;;;;5074635;28;20228;-79
2022/08/26 01:51:55;;;;;;;8.02;6.68;;;;;;;;;;5073280;28;20567;-79
2022/08/26 01:54:21;;;;;;;8.57;7.40;;;;;;;;;;5057336;28;20226;-79
2022/08/26 01:56:48;;;;;;;7.70;6.50;;;;;;;;;;5068854;28;20170;-79
2022/08/26 01:59:14;;;;;;;6.80;6.10;;;;;;;;;;5055984;28;20177;-79
2022/08/26 02:01:40;;;;;;;8.57;6.80;;;;;;;;;;5056316;28;20632;-79
2022/08/26 02:04:12;;;;;;;9.53;6.60;;;;;;;;;;5056563;28;20177;-79
2022/08/26 02:06:38;;;;;;;7.27;6.57;;;;;;;;;;5056105;28;20174;-79
2022/08/26 02:09:05;;;;;;;8.13;6.60;;;;;;;;;;5056462;28;20201;-79
2022/08/26 02:11:31;;;;;;;7.27;6.53;;;;;;;;;;5039299;28;20181;-79
2022/08/26 02:14:01;;;;;;;8.73;6.50;;;;;;;;;;5055311;28;20215;-79
2022/08/26 02:16:29;;;;;;;7.63;6.80;;;;;;;;;;5038992;28;20164;-79
2022/08/26 02:18:56;;;;;;;7.47;6.60;;;;;;;;;;5055247;28;20178;-79
2022/08/26 02:21:22;;;;;;;8.77;7.10;;;;;;;;;;5055740;28;20181;-79
2022/08/26 02:23:48;;;;;;;7.97;6.90;;;;;;;;;;5038387;28;20660;-79
2022/08/26 02:26:16;;;;;;;9.67;7.10;;;;;;;;;;5038331;28;20188;-79
2022/08/26 02:28:49;;;;;;;8.63;6.93;;;;;;;;;;5038346;28;20209;-79
2022/08/26 02:31:15;;;;;;;8.97;7.00;;;;;;;;;;5054886;28;20173;-79
2022/08/26 02:33:41;;;;;;;8.30;7.20;;;;;;;;;;5054447;28;20285;-79
2022/08/26 02:36:07;;;;;;;9.03;6.80;;;;;;;;;;5054299;28;20594;-79
2022/08/26 02:38:34;;;;;;;8.97;7.07;;;;;;;;;;5055253;28;20181;-79
2022/08/26 02:41:00;;;;;;;7.80;7.00;;;;;;;;;;5054685;28;20174;-79
2022/08/26 02:43:26;;;;;;;8.67;7.20;;;;;;;;;;5054493;28;20263;-79
2022/08/26 02:45:52;;;;;;;8.07;6.33;;;;;;;;;;5037723;28;20771;-79
2022/08/26 02:48:21;;;;;;;7.80;6.77;;;;;;;;;;5053657;28;20201;-79
2022/08/26 02:50:47;;;;;;;8.10;7.30;;;;;;;;;;5053890;28;20169;-79
2022/08/26 02:53:14;;;;;;;8.67;6.80;;;;;;;;;;5054143;28;20189;-79
2022/08/26 02:55:40;;;;;;;7.17;6.47;;;;;;;;;;5037849;28;20184;-79
2022/08/26 02:58:07;;;;;;;8.30;6.83;;;;;;;;;;5055212;28;20659;-79
2022/08/26 03:00:35;;;;;;;8.33;7.03;;;;;;;;;;5055394;28;20177;-79
2022/08/26 03:03:01;;;;;;;8.20;7.20;;;;;;;;;;5037138;28;20205;-79
2022/08/26 03:05:27;;;;;;;8.63;7.10;;;;;;;;;;5037407;28;20181;-79
2022/08/26 03:07:53;;;;;;;11.23;7.30;;;;;;;;;;5036723;28;20282;-79
2022/08/26 03:10:19;;;;;;;8.63;6.90;;;;;;;;;;5053556;28;20671;-79
2022/08/26 03:12:45;;;;;;;8.00;7.20;;;;;;;;;;5054688;28;20585;-79
2022/08/26 03:15:11;;;;;;;7.57;6.77;;;;;;;;;;5053769;28;20184;-79
2022/08/26 03:17:38;;;;;;;7.93;6.93;;;;;;;;;;5053013;28;20243;-79
2022/08/26 03:20:08;;;;;;;8.03;7.13;;;;;;;;;;5053559;28;20264;-79
2022/08/26 03:22:34;;;;;;;8.10;6.80;;;;;;;;;;5053212;28;20193;-79
2022/08/26 03:25:00;;;;;;;8.43;6.87;;;;;;;;;;5036905;28;20227;-79
2022/08/26 03:27:26;;;;;;;8.70;6.93;;;;;;;;;;5036601;28;20551;-79
2022/08/26 03:32:36;;;;;;;8.53;6.90;;;;;;;;;;5053280;28;20213;-79
2022/08/26 03:35:02;;;;;;;8.83;7.53;;;;;;;;;;5053242;28;20192;-79
2022/08/26 03:37:28;;;;;;;7.83;7.00;;;;;;;;;;5052546;28;20174;-79
2022/08/26 03:39:54;;;;;;;7.20;6.50;;;;;;;;;;5053005;28;20177;-79
2022/08/26 03:42:20;;;;;;;7.47;6.40;;;;;;;;;;5036231;28;20202;-79
2022/08/26 03:44:47;;;;;;;8.57;6.87;;;;;;;;;;5036161;28;20644;-79
2022/08/26 03:47:25;;;;;;;9.23;7.20;;;;;;;;;;5052237;28;20204;-79
2022/08/26 03:49:51;;;;;;;8.30;7.40;;;;;;;;;;5036440;28;20185;-79
2022/08/26 03:52:17;;;;;;;7.27;6.57;;;;;;;;;;5061832;28;20197;-79
2022/08/26 03:54:43;;;;;;;8.30;7.43;;;;;;;;;;5073940;28;20541;-79
2022/08/26 03:57:09;;;;;;;9.53;7.60;;;;;;;;;;5055915;28;20183;-79
2022/08/26 03:59:35;;;;;;;10.27;7.10;;;;;;;;;;5056335;28;20189;-79
2022/08/26 04:02:01;;;;;;;9.43;7.37;;;;;;;;;;5073531;28;20750;-79
2022/08/26 04:04:27;;;;;;;10.30;7.67;;;;;;;;;;5055949;28;20223;-79
2022/08/26 04:06:57;;;;;;;9.47;6.73;;;;;;;;;;5055490;28;20188;-79
2022/08/26 04:09:24;;;;;;;8.63;7.27;;;;;;;;;;5055443;28;20230;-79
2022/08/26 04:11:50;;;;;;;9.43;7.23;;;;;;;;;;5055415;28;20627;-79
2022/08/26 04:14:18;;;;;;;9.80;6.90;;;;;;;;;;5073065;28;20590;-79
2022/08/26 04:16:45;;;;;;;9.57;7.97;;;;;;;;;;5076017;28;20180;-79
2022/08/26 04:19:11;;;;;;;9.07;7.17;;;;;;;;;;5075890;28;20181;-79
2022/08/26 04:21:38;;;;;;;8.90;7.30;;;;;;;;;;5076070;28;20185;-79
2022/08/26 04:24:04;;;;;;;8.20;7.27;;;;;;;;;;5076994;28;20189;-79
2022/08/26 04:26:35;;;;;;;10.27;7.07;;;;;;;;;;5077217;28;20172;-79
2022/08/26 04:29:03;;;;;;;9.43;7.07;;;;;;;;;;5076085;28;20193;-79
2022/08/26 04:31:29;;;;;;;9.90;7.20;;;;;;;;;;5076275;28;20173;-79
2022/08/26 04:33:55;;;;;;;7.93;7.20;;;;;;;;;;5059172;28;20296;-79
2022/08/26 04:36:24;;;;;;;8.10;7.10;;;;;;;;;;5075682;28;20226;-79
2022/08/26 04:38:50;;;;;;;8.40;7.57;;;;;;;;;;5075991;28;20173;-79
2022/08/26 04:41:18;;;;;;;8.20;7.30;;;;;;;;;;5059523;28;20233;-79
2022/08/26 04:43:45;;;;;;;10.20;7.77;;;;;;;;;;5077224;28;20189;-79
2022/08/26 04:46:12;;;;;;;7.80;7.10;;;;;;;;;;5075717;28;20192;-79
2022/08/26 04:49:00;;;;;;;8.67;6.70;;;;;;;;;;5074763;28;20284;-77
2022/08/26 04:51:26;;;;;;;8.73;6.43;;;;;;;;;;5075723;28;20154;-77
2022/08/26 04:53:53;;;;;;;7.13;6.43;;;;;;;;;;5074376;28;20193;-77
2022/08/26 04:56:19;;;;;;;7.17;6.47;;;;;;;;;;5074288;28;20173;-78
2022/08/26 04:58:46;;;;;;;9.63;6.53;;;;;;;;;;5074267;28;20184;-77
2022/08/26 05:01:12;;;;;;;8.73;6.67;;;;;;;;;;5075359;28;20176;-77
2022/08/26 05:03:38;;;;;;;8.37;6.67;;;;;;;;;;5074656;28;20201;-78
2022/08/26 05:06:04;;;;;;;8.20;6.70;;;;;;;;;;5074549;28;20253;-78
2022/08/26 05:08:30;;;;;;;9.83;6.27;;;;;;;;;;5073935;28;20641;-78
2022/08/26 05:10:56;;;;;;;21.47;13.40;;;;;;;;;;5074235;28;20658;-78
2022/08/26 05:13:24;;;;;;;11.00;8.03;;;;;;;;;;5091775;23;20224;-79
2022/08/26 05:15:50;;;;;;;8.97;6.83;;;;;;;;;;5091642;28;20176;-80
2022/08/26 05:18:17;;;;;;;8.27;6.70;;;;;;;;;;5089373;28;20274;-80
2022/08/26 05:20:45;;;;;;;6.93;6.33;;;;;;;;;;5082083;28;20181;-80
2022/08/26 05:23:11;;;;;;;8.75;7.00;;;;;;;;;;5078098;28;20208;-80
2022/08/26 05:25:43;;;;;;;8.13;7.18;;;;;;;;;;5077965;28;20185;-81
2022/08/26 05:28:10;;;;;;;6.88;6.25;;;;;;;;;;5076566;28;20674;-79
2022/08/26 05:30:36;;;;;;;7.35;6.63;;;;;;;;;;5066554;28;20203;-79
2022/08/26 05:33:03;;;;;;;7.45;6.50;;;;;;;;;;5052191;28;20203;-80
2022/08/26 05:35:30;;;;;;;8.27;6.63;;;;;;;;;;5043915;28;20263;-80
2022/08/26 05:38:00;;;;;;;9.27;6.72;;;;;;;;;;5040595;28;20178;-80
2022/08/26 05:40:27;;;;;;;8.80;7.00;;;;;;;;;;5056339;28;20216;-80
2022/08/26 05:42:53;;;;;;;9.45;7.40;;;;;;;;;;5056271;28;20215;-78
2022/08/26 05:45:22;;;;;;;9.20;7.50;;;;;;;;;;5063849;28;20177;-78
2022/08/26 05:47:49;;;;;;;8.52;7.45;;;;;;;;;;5057555;28;20200;-78
2022/08/26 05:50:15;;;;;;;10.48;9.43;;;;;;;;;;5058254;28;20173;-80
2022/08/26 05:52:41;;;;;;;12.15;8.95;;;;;;;;;;5075068;28;20196;-78
2022/08/26 05:55:07;;;;;;;9.02;7.32;;;;;;;;;;5076406;28;20218;-78
2022/08/26 05:57:33;;;;;;;9.70;7.25;;;;;;;;;;5056763;28;20173;-78
2022/08/26 05:59:59;;;;;;;7.82;6.88;;;;;;;;;;5056562;28;20177;-78
2022/08/26 06:02:25;;;;;;;8.27;7.38;;;;;;;;;;5073289;28;20196;-77
2022/08/26 06:04:51;;;;;;;10.73;7.40;;;;;;;;;;5056620;28;20176;-77
2022/08/26 06:08:09;;;;;;;10.98;7.43;;;;;;;;;;5056532;28;20713;-77
2022/08/26 06:10:03;;;;;;;8.82;7.57;;;;;;;;;;5072802;28;20196;-77
2022/08/26 06:12:29;;;;;;;9.55;6.63;;;;;;;;;;5056391;28;20216;-77
2022/08/26 06:14:56;;;;;;;8.20;6.68;;;;;;;;;;5056144;28;20187;-77
2022/08/26 06:17:22;;;;;;;8.95;6.97;;;;;;;;;;5072382;28;20648;-77
2022/08/26 06:19:48;;;;;;;8.32;7.07;;;;;;;;;;5056000;28;20267;-77
2022/08/26 06:27:50;;;;;;;10.88;7.40;;;;;;;;;;5073808;28;20250;-77
2022/08/26 06:30:16;;;;;;;10.30;7.45;;;;;;;;;;5056170;28;20173;-76
2022/08/26 06:32:42;;;;;;;9.70;7.25;;;;;;;;;;5056011;28;20621;-76
2022/08/26 06:35:08;;;;;;;8.45;7.13;;;;;;;;;;5056949;28;20176;-77
2022/08/26 06:37:41;;;;;;;10.40;8.32;;;;;;;;;;5055410;28;20176;-78
2022/08/26 06:40:07;;;;;;;11.68;9.00;;;;;;;;;;5053176;28;20598;-76
2022/08/26 06:42:33;;;;;;;12.15;8.52;;;;;;;;;;5052885;28;20571;-77
2022/08/26 06:45:00;;;;;;;12.27;9.30;;;;;;;;;;5052338;28;20173;-77
2022/08/26 06:47:26;;;;;;;10.85;8.70;;;;;;;;;;5052143;28;20177;-77
2022/08/26 06:49:52;;;;;;;9.85;8.18;;;;;;;;;;5064279;28;20200;-77
2022/08/26 06:55:24;;;;;;;13.27;9.80;;;;;;;;;;5073635;28;20252;-77
2022/08/26 06:57:50;;;;;;;13.80;9.23;;;;;;;;;;5055796;28;20161;-82
2022/08/26 07:00:17;;;;;;;11.32;7.85;;;;;;;;;;5035094;28;20181;-77
2022/08/26 07:02:44;;;;;;;11.43;9.57;;;;;;;;;;5053536;28;20229;-77
2022/08/26 07:05:10;;;;;;;9.43;8.35;;;;;;;;;;5053908;28;20272;-77
2022/08/26 07:07:37;;;;;;;12.10;8.88;;;;;;;;;;5071839;28;20183;-77
2022/08/26 07:10:03;;;;;;;12.20;9.27;;;;;;;;;;5055525;28;20634;-77
2022/08/26 07:12:29;;;;;;;13.20;9.45;;;;;;;;;;5071529;28;20208;-77
2022/08/26 07:14:55;;;;;;;8.60;7.72;;;;;;;;;;5055033;28;20226;-77
2022/08/26 07:17:21;;;;;;;10.18;7.88;;;;;;;;;;5071858;28;20539;-77
2022/08/26 07:19:47;;;;;;;9.63;7.90;;;;;;;;;;5054937;28;20173;-77
2022/08/26 07:22:15;;;;;;;11.35;8.70;;;;;;;;;;5071297;28;20220;-77
2022/08/26 07:24:41;;;;;;;12.30;8.40;;;;;;;;;;5071364;28;20184;-77
2022/08/26 07:27:08;;;;;;;11.45;8.65;;;;;;;;;;5054755;28;20187;-77
2022/08/26 07:29:35;;;;;;;12.45;8.75;;;;;;;;;;5071309;28;20197;-77
2022/08/26 07:32:01;;;;;;;12.13;7.15;;;;;;;;;;5071206;28;20618;-77
2022/08/26 07:34:28;;;;;;;13.02;8.63;;;;;;;;;;5072897;28;20169;-77
2022/08/26 07:36:55;;;;;;;11.52;7.68;;;;;;;;;;5055019;28;20234;-77
2022/08/26 07:39:22;;;;;;;9.88;7.50;;;;;;;;;;5071365;28;20183;-77
2022/08/26 07:41:48;;;;;;;12.20;7.93;;;;;;;;;;5071315;28;20623;-77
2022/08/26 07:44:14;;;;;;;12.05;7.75;;;;;;;;;;5071599;28;20227;-77
2022/08/26 07:46:40;;;;;;;11.23;7.07;;;;;;;;;;5071053;28;20176;-77
2022/08/26 07:49:06;;;;;;;11.40;8.07;;;;;;;;;;5072015;28;20549;-77
2022/08/26 07:51:33;;;;;;;10.60;8.15;;;;;;;;;;5076659;28;20230;-77
2022/08/26 07:53:59;;;;;;;13.52;8.23;;;;;;;;;;5074816;28;20196;-77
2022/08/26 07:56:25;;;;;;;11.43;7.28;;;;;;;;;;5057299;28;20184;-77
2022/08/26 07:58:52;;;;;;;13.02;7.72;;;;;;;;;;5055307;28;20223;-78
2022/08/26 08:01:22;;;;;;;10.23;7.47;;;;;;;;;;5069563;28;20169;-78
2022/08/26 08:04:18;;;;;;;11.13;7.95;;;;;;;;;;5054902;28;20208;-77
2022/08/26 08:06:45;;;;;;;11.75;8.00;;;;;;;;;;5055370;28;20165;-77
2022/08/26 08:09:12;;;;;;;11.07;7.35;;;;;;;;;;5055010;28;20197;-77
2022/08/26 08:11:38;;;;;;;11.25;7.32;;;;;;;;;;5055052;28;20612;-77
2022/08/26 08:14:04;;;;;;;11.50;7.22;;;;;;;;;;5055127;28;20209;-77
2022/08/26 08:16:29;;;;;;;10.20;7.60;;;;;;;;;;5055412;28;20178;-78
2022/08/26 08:18:56;;;;;;;13.65;7.30;;;;;;;;;;5055313;28;20178;-78
2022/08/26 08:21:25;;;;;;;12.27;7.50;;;;;;;;;;5055496;28;20189;-76
2022/08/26 08:23:55;;;;;;;15.30;7.70;;;;;;;;;;5054874;28;20686;-77
2022/08/26 08:26:23;;;;;;;13.38;6.85;;;;;;;;;;5071639;28;20275;-78
2022/08/26 08:28:49;;;;;;;11.43;7.13;;;;;;;;;;5057931;28;20285;-76
2022/08/26 08:31:20;;;;;;;14.00;7.20;;;;;;;;;;5075184;28;20186;-77
2022/08/26 08:33:47;;;;;;;11.07;7.22;;;;;;;;;;5075147;28;20185;-78
2022/08/26 08:36:15;;;;;;;12.25;6.95;;;;;;;;;;5058369;28;20177;-78
2022/08/26 08:38:41;;;;;;;10.50;7.32;;;;;;;;;;5091570;28;20188;-76
2022/08/26 08:41:17;;;;;;;12.07;7.10;;;;;;;;;;5075386;28;20173;-79
2022/08/26 08:43:45;;;;;;;11.50;7.22;;;;;;;;;;5076230;28;20195;-79
2022/08/26 08:46:13;;;;;;;13.63;7.18;;;;;;;;;;5074722;28;20188;-79
2022/08/26 08:48:42;;;;;;;12.00;7.65;;;;;;;;;;5076171;28;20188;-80
2022/08/26 08:51:12;;;;;;;10.88;7.15;;;;;;;;;;5092344;28;20173;-78
2022/08/26 08:53:40;;;;;;;10.45;6.80;;;;;;;;;;5066222;28;20586;-77
2022/08/26 08:56:06;;;;;;;13.15;6.60;;;;;;;;;;5072544;28;20624;-79
2022/08/26 08:58:47;;;;;;;10.48;6.72;;;;;;;;;;5056548;28;20169;-77
2022/08/26 09:01:19;;;;;;;12.07;7.53;;;;;;;;;;5063032;28;20177;-78
2022/08/26 09:03:53;;;;;;;10.63;6.68;;;;;;;;;;5063955;28;20193;-78
2022/08/26 09:06:19;;;;;;;10.57;6.55;;;;;;;;;;5077044;28;20302;-77
2022/08/26 09:08:47;;;;;;;10.07;6.60;;;;;;;;;;5076121;28;20200;-78
2022/08/26 09:11:14;;;;;;;10.60;6.72;;;;;;;;;;5077116;28;20173;-78
2022/08/26 09:13:44;;;;;;;9.57;5.97;;;;;;;;;;5076404;28;20671;-79
2022/08/26 09:16:13;;;;;;;9.23;5.57;;;;;;;;;;5062192;28;20173;-77
2022/08/26 09:18:58;;;;;;;9.75;6.13;;;;;;;;;;5070055;28;20228;-75
2022/08/26 09:21:24;;;;;;;9.57;6.57;;;;;;;;;;5065590;28;20226;-76
2022/08/26 09:23:51;;;;;;;8.30;5.75;;;;;;;;;;5088221;28;20201;-75
2022/08/26 09:26:17;;;;;;;8.95;5.97;;;;;;;;;;5058778;28;20550;-76
2022/08/26 09:29:03;;;;;;;8.68;5.90;;;;;;;;;;5073485;28;20663;-80
2022/08/26 09:31:34;;;;;;;7.38;5.70;;;;;;;;;;5057272;28;20173;-75
2022/08/26 09:34:03;;;;;;;8.35;5.50;;;;;;;;;;5073543;28;20273;-74
2022/08/26 09:36:32;;;;;;;6.05;5.25;;;;;;;;;;5073679;28;20177;-74
2022/08/26 09:38:58;;;;;;;8.20;5.43;;;;;;;;;;5073546;28;20169;-74
2022/08/26 09:41:32;;;;;;;8.30;5.60;;;;;;;;;;5072671;28;20184;-76
2022/08/26 09:44:04;;;;;;;8.43;5.32;;;;;;;;;;5057243;28;20197;-74
2022/08/26 09:46:31;;;;;;;11.10;6.15;;;;;;;;;;5053676;28;20540;-75
2022/08/26 09:49:17;;;;;;;11.27;6.05;;;;;;;;;;5053933;28;20640;-76
2022/08/26 09:51:43;;;;;;;11.20;6.35;;;;;;;;;;5054666;28;20256;-76
2022/08/26 09:54:23;;;;;;;10.68;6.07;;;;;;;;;;5050426;28;20687;-76
2022/08/26 09:56:48;;;;;;;12.93;6.20;;;;;;;;;;5065714;28;20192;-76
2022/08/26 09:59:28;;;;;;;8.90;5.97;;;;;;;;;;5069877;28;20672;-75
2022/08/26 10:01:54;;;;;;;8.38;5.85;;;;;;;;;;5073960;28;20157;-75
2022/08/26 10:04:22;;;;;;;7.53;6.05;;;;;;;;;;5057840;28;20643;-75
2022/08/26 10:06:56;;;;;;;8.35;6.18;;;;;;;;;;5073650;28;20169;-75
2022/08/26 10:09:23;;;;;;;8.77;6.35;;;;;;;;;;5073366;28;20200;-74
2022/08/26 10:11:56;;;;;;;8.45;5.75;;;;;;;;;;5072835;28;20264;-75
2022/08/26 10:14:25;;;;;;;8.40;5.68;;;;;;;;;;5075523;28;20253;-74
2022/08/26 10:17:06;;;;;;;9.55;6.40;;;;;;;;;;5073168;28;20310;-75
2022/08/26 10:19:35;;;;;;;10.27;6.00;;;;;;;;;;5073245;28;20181;-75
2022/08/26 10:22:13;;;;;;;10.98;6.68;;;;;;;;;;5056797;28;20229;-76
2022/08/26 10:24:41;;;;;;;9.63;6.18;;;;;;;;;;5061095;28;20181;-76
2022/08/26 10:27:16;;;;;;;9.13;6.07;;;;;;;;;;5061386;28;20185;-77
2022/08/26 10:29:45;;;;;;;9.70;6.63;;;;;;;;;;5067561;28;20197;-77
2022/08/26 10:32:13;;;;;;;10.73;6.95;;;;;;;;;;5055057;28;20285;-77
2022/08/26 10:34:41;;;;;;;10.70;6.80;;;;;;;;;;5035791;28;20671;-77
2022/08/26 10:37:10;;;;;;;7.05;6.28;;;;;;;;;;5035791;28;20174;-77
2022/08/26 10:39:54;;;;;;;9.65;6.20;;;;;;;;;;5052369;28;20213;-77
2022/08/26 10:42:22;;;;;;;12.85;6.43;;;;;;;;;;5052083;28;20193;-77
2022/08/26 10:44:50;;;;;;;9.48;6.40;;;;;;;;;;5035921;28;20184;-77
2022/08/26 10:47:32;;;;;;;19.27;6.45;;;;;;;;;;5052275;28;20532;-77
2022/08/26 10:49:58;;;;;;;15.40;6.25;;;;;;;;;;5052180;28;20194;-77
2022/08/26 10:52:24;;;;;;;13.43;6.85;;;;;;;;;;5052157;28;20193;-76
2022/08/26 10:55:02;;;;;;;9.60;6.60;;;;;;;;;;5053597;28;20212;-76
2022/08/26 10:57:51;;;;;;;8.75;6.10;;;;;;;;;;5051765;28;20212;-76
2022/08/26 11:03:09;;;;;;;11.07;5.78;;;;;;;;;;5062181;28;20257;-78
2022/08/26 11:05:35;;;;;;;8.65;6.15;;;;;;;;;;5044536;28;20184;-76
2022/08/26 11:08:19;;;;;;;9.32;6.50;;;;;;;;;;5035532;28;20213;-77
2022/08/26 11:10:51;;;;;;;10.63;6.38;;;;;;;;;;5051840;28;20632;-75
2022/08/26 11:13:17;;;;;;;10.38;6.20;;;;;;;;;;5077162;22;20216;-82
2022/08/26 11:15:43;;;;;;;9.88;6.28;;;;;;;;;;5068500;28;20178;-79
2022/08/26 11:18:10;;;;;;;8.27;6.30;;;;;;;;;;5072601;28;20165;-82
2022/08/26 11:20:45;;;;;;;10.45;5.70;;;;;;;;;;5072715;28;20180;-82
2022/08/26 11:23:11;;;;;;;9.75;6.45;;;;;;;;;;5071676;28;20210;-82
2022/08/26 11:25:56;;;;;;;10.38;6.25;;;;;;;;;;5073449;28;20173;-82
2022/08/26 11:28:33;;;;;;;11.32;6.55;;;;;;;;;;5072095;28;20207;-82
2022/08/26 11:30:59;;;;;;;10.93;6.47;;;;;;;;;;5071990;28;20700;-82
2022/08/26 11:33:43;;;;;;;11.98;5.85;;;;;;;;;;5071828;28;20218;-82
2022/08/26 11:36:10;;;;;;;10.10;5.97;;;;;;;;;;5072178;28;20173;-82
2022/08/26 11:38:40;;;;;;;11.25;6.15;;;;;;;;;;5071835;28;20173;-82
2022/08/26 11:41:11;;;;;;;10.93;6.07;;;;;;;;;;5071799;28;20260;-82
2022/08/26 11:43:38;;;;;;;7.38;5.97;;;;;;;;;;5066141;28;20199;-82
2022/08/26 11:46:05;;;;;;;10.20;6.07;;;;;;;;;;5055515;28;20209;-82
2022/08/26 11:48:36;;;;;;;9.20;5.95;;;;;;;;;;5072036;28;20196;-82
2022/08/26 11:51:06;;;;;;;7.53;5.57;;;;;;;;;;5071102;28;20188;-82
2022/08/26 11:53:35;;;;;;;10.00;5.50;;;;;;;;;;5051842;28;20201;-82
2022/08/26 11:56:04;;;;;;;10.60;5.88;;;;;;;;;;5051543;28;20219;-82
2022/08/26 11:58:30;;;;;;;9.13;6.03;;;;;;;;;;5053721;28;20188;-82
2022/08/26 12:00:58;;;;;;;8.40;5.70;;;;;;;;;;5070107;28;20187;-82
2022/08/26 12:03:30;;;;;;;12.05;5.55;;;;;;;;;;5071548;28;20196;-82
2022/08/26 12:05:56;;;;;;;9.93;5.82;;;;;;;;;;5060054;28;20644;-82
2022/08/26 12:08:25;;;;;;;9.82;6.00;;;;;;;;;;5051247;28;20193;-82
2022/08/26 12:11:08;;;;;;;10.07;5.60;;;;;;;;;;5051959;28;20177;-82
2022/08/26 12:13:37;;;;;;;8.90;5.63;;;;;;;;;;5051926;28;20213;-82
2022/08/26 12:16:04;;;;;;;7.85;5.65;;;;;;;;;;5055029;28;20605;-82
2022/08/26 12:18:32;;;;;;;10.35;5.93;;;;;;;;;;5051560;28;20643;-82
2022/08/26 12:20:59;;;;;;;8.48;5.10;;;;;;;;;;5063042;28;20205;-80
2022/08/26 12:23:40;;;;;;;10.18;5.78;;;;;;;;;;5051885;28;20193;-79
2022/08/26 12:26:19;;;;;;;7.22;5.47;;;;;;;;;;5067268;28;20310;-78
2022/08/26 12:28:47;;;;;;;7.75;5.50;;;;;;;;;;5071181;28;20209;-79
2022/08/26 12:31:19;;;;;;;9.18;5.63;;;;;;;;;;5072318;28;20193;-79
2022/08/26 12:33:45;;;;;;;10.23;5.90;;;;;;;;;;5071003;28;20234;-79
2022/08/26 12:36:11;;;;;;;7.70;5.70;;;;;;;;;;5072800;28;20181;-79
2022/08/26 12:38:39;;;;;;;10.73;5.80;;;;;;;;;;5059032;28;20177;-80
2022/08/26 12:41:05;;;;;;;9.15;5.32;;;;;;;;;;5065232;28;20261;-81
2022/08/26 12:43:42;;;;;;;8.50;5.60;;;;;;;;;;5063829;28;20230;-83
2022/08/26 12:46:14;;;;;;;8.77;5.30;;;;;;;;;;5058828;28;20177;-82
2022/08/26 12:48:42;;;;;;;10.15;5.35;;;;;;;;;;5075140;28;20682;-82
2022/08/26 12:51:15;;;;;;;10.07;5.65;;;;;;;;;;5074733;28;20226;-82
2022/08/26 12:53:44;;;;;;;6.72;5.28;;;;;;;;;;5075050;28;20258;-82
2022/08/26 12:56:28;;;;;;;9.10;5.82;;;;;;;;;;5066805;28;20173;-82
2022/08/26 12:59:02;;;;;;;11.23;6.38;;;;;;;;;;5067593;28;20192;-82
2022/08/26 13:01:36;;;;;;;7.65;5.90;;;;;;;;;;5070136;28;20177;-82
2022/08/26 13:04:04;;;;;;;8.85;5.65;;;;;;;;;;5074594;28;20708;-82
2022/08/26 13:06:30;;;;;;;10.40;5.72;;;;;;;;;;5055334;28;20182;-82
2022/08/26 13:08:56;;;;;;;9.80;5.85;;;;;;;;;;5054459;28;20205;-82
2022/08/26 13:11:27;;;;;;;8.13;5.65;;;;;;;;;;5054252;28;20184;-82
2022/08/26 13:13:56;;;;;;;8.15;5.72;;;;;;;;;;5054275;28;20233;-83
2022/08/26 13:16:23;;;;;;;8.63;6.03;;;;;;;;;;5054072;28;20586;-82
2022/08/26 13:18:51;;;;;;;12.90;5.80;;;;;;;;;;5053948;28;20670;-82
2022/08/26 13:21:38;;;;;;;12.05;5.95;;;;;;;;;;5054094;28;20188;-82
2022/08/26 13:24:10;;;;;;;8.88;5.63;;;;;;;;;;5047291;28;20201;-83
2022/08/26 13:26:36;;;;;;;10.95;5.70;;;;;;;;;;5054720;28;20170;-82
2022/08/26 13:29:02;;;;;;;8.35;6.25;;;;;;;;;;5053824;28;20206;-82
2022/08/26 13:31:29;;;;;;;9.65;5.75;;;;;;;;;;5054256;28;20576;-82
2022/08/26 13:33:56;;;;;;;8.95;5.57;;;;;;;;;;5054229;28;20254;-83
2022/08/26 13:36:22;;;;;;;7.22;5.20;;;;;;;;;;5054288;28;20177;-82
2022/08/26 13:38:48;;;;;;;7.50;5.65;;;;;;;;;;5054008;28;20173;-82
2022/08/26 13:41:15;;;;;;;10.48;5.45;;;;;;;;;;5054034;28;20178;-82
2022/08/26 13:43:41;;;;;;;10.07;5.45;;;;;;;;;;5060753;28;20208;-82
2022/08/26 13:46:07;;;;;;;7.65;5.47;;;;;;;;;;5070287;28;20182;-83
2022/08/26 13:48:33;;;;;;;7.30;5.68;;;;;;;;;;5069500;28;20198;-82
2022/08/26 13:51:01;;;;;;;10.32;5.30;;;;;;;;;;5070497;28;20178;-82
2022/08/26 13:53:29;;;;;;;11.98;5.70;;;;;;;;;;5070356;28;20201;-82
2022/08/26 13:55:55;;;;;;;6.88;5.57;;;;;;;;;;5070570;28;20173;-82
2022/08/26 13:58:21;;;;;;;6.28;5.50;;;;;;;;;;5070108;28;20553;-82
2022/08/26 14:00:47;;;;;;;9.63;5.13;;;;;;;;;;5071255;28;20178;-82
2022/08/26 14:03:13;;;;;;;5.55;4.70;;;;;;;;;;5070414;28;20289;-81
2022/08/26 14:05:39;;;;;;;6.57;5.32;;;;;;;;;;5072208;28;20180;-79
2022/08/26 14:08:06;;;;;;;6.13;4.72;;;;;;;;;;5056394;28;20283;-81
2022/08/26 14:10:32;;;;;;;5.72;4.78;;;;;;;;;;5053773;28;20174;-81
2022/08/26 14:12:58;;;;;;;5.78;4.57;;;;;;;;;;5057002;28;20169;-81
2022/08/26 14:15:24;;;;;;;6.72;4.65;;;;;;;;;;5057720;28;20686;-81
2022/08/26 14:17:50;;;;;;;5.22;4.47;;;;;;;;;;5057239;28;20270;-81
2022/08/26 14:20:23;;;;;;;6.22;4.88;;;;;;;;;;5074926;28;20524;-79
2022/08/26 14:22:49;;;;;;;6.75;4.90;;;;;;;;;;5074173;28;20173;-80
2022/08/26 14:25:15;;;;;;;8.73;4.50;;;;;;;;;;5074600;28;20256;-81
2022/08/26 14:27:41;;;;;;;5.38;4.38;;;;;;;;;;5057612;28;20173;-79
2022/08/26 14:30:08;;;;;;;7.40;4.63;;;;;;;;;;5075040;28;20690;-81
2022/08/26 14:32:35;;;;;;;4.82;4.20;;;;;;;;;;5074538;28;20165;-81
2022/08/26 14:35:01;;;;;;;4.75;4.25;;;;;;;;;;5058469;28;20189;-80
2022/08/26 14:37:27;;;;;;;6.60;4.28;;;;;;;;;;5058476;28;20200;-80
2022/08/26 14:39:53;;;;;;;6.60;3.95;;;;;;;;;;5058111;28;20177;-80
2022/08/26 14:42:21;;;;;;;5.60;4.60;;;;;;;;;;5058329;28;20173;-80
2022/08/26 14:44:48;;;;;;;7.70;4.82;;;;;;;;;;5074859;28;20224;-80
2022/08/26 14:47:14;;;;;;;5.20;4.70;;;;;;;;;;5074302;28;20173;-80
2022/08/26 14:49:40;;;;;;;6.32;4.25;;;;;;;;;;5058302;28;20212;-80
2022/08/26 14:52:06;;;;;;;7.22;4.65;;;;;;;;;;5057631;28;20709;-80
2022/08/26 14:54:32;;;;;;;7.55;5.13;;;;;;;;;;5058065;28;20205;-80
2022/08/26 14:57:03;;;;;;;7.35;4.57;;;;;;;;;;5057556;28;20169;-80
2022/08/26 14:59:34;;;;;;;6.32;4.65;;;;;;;;;;5072877;28;20181;-80